createdAt,value
2022-12-23T00:01:23.420Z,97336.81
2022-12-23T00:03:50.002Z,97332.19
2022-12-23T00:06:18.353Z,97342.22
2022-12-23T00:08:44.907Z,97337.56
2022-12-23T00:11:14.544Z,97340.31
2022-12-23T00:13:59.490Z,97343.38
2022-12-23T00:16:26.152Z,97346.53
2022-12-23T00:18:54.247Z,97344.72
2022-12-23T00:21:21.350Z,97348.94
2022-12-23T00:23:49.797Z,97353.09
2022-12-23T00:26:19.217Z,97354.38
2022-12-23T00:28:45.859Z,97358.25
2022-12-23T00:31:13.294Z,97364.38
2022-12-23T00:33:42.918Z,97363.84
2022-12-23T00:36:14.288Z,97375.09
2022-12-23T00:38:59.561Z,97367.91
2022-12-23T00:41:44.910Z,97366.78
2022-12-23T00:44:11.415Z,97367.88
2022-12-23T00:46:38.152Z,97383.41
2022-12-23T00:49:23.651Z,97382.31
2022-12-23T00:51:50.285Z,97387.06
2022-12-23T00:54:17.669Z,97388.78
2022-12-23T00:56:44.323Z,97396.53
2022-12-23T00:59:10.775Z,97399.16
2022-12-23T01:01:55.938Z,97398.91
2022-12-23T01:04:41.035Z,97406.56
2022-12-23T01:07:07.625Z,97407.53
2022-12-23T01:09:34.441Z,97413.19
2022-12-23T01:12:01.669Z,97426.81
2022-12-23T01:14:28.508Z,97438.97
2022-12-23T01:16:55.057Z,97429.59
2022-12-23T01:19:21.631Z,97439.06
2022-12-23T01:21:48.232Z,97447.41
2022-12-23T01:24:14.669Z,97449.63
2022-12-23T01:26:41.190Z,97462.00
2022-12-23T01:29:07.676Z,97466.66
2022-12-23T01:31:34.677Z,97467.19
2022-12-23T01:34:01.257Z,97472.03
2022-12-23T01:36:27.774Z,97479.06
2022-12-23T01:38:56.292Z,97484.16
2022-12-23T01:41:44.642Z,97484.94
2022-12-23T01:45:05.612Z,97490.06
2022-12-23T01:47:35.042Z,97491.53
2022-12-23T01:50:09.982Z,97490.00
2022-12-23T01:52:43.487Z,97490.59
2022-12-23T01:55:11.038Z,97504.59
2022-12-23T01:57:40.776Z,97490.81
2022-12-23T02:00:29.370Z,97495.06
2022-12-23T02:03:14.388Z,97496.72
2022-12-23T02:05:44.068Z,97504.59
2022-12-23T02:08:29.924Z,97519.41
2022-12-23T02:11:14.757Z,97520.66
2022-12-23T02:14:23.826Z,97530.81
2022-12-23T02:17:09.000Z,97539.06
2022-12-23T02:20:13.545Z,97542.72
2022-12-23T02:22:57.955Z,97552.13
2022-12-23T02:26:05.380Z,97558.56
2022-12-23T02:28:50.558Z,97556.31
2022-12-23T02:31:29.304Z,97560.00
2022-12-23T02:34:07.386Z,97560.09
2022-12-23T02:36:36.843Z,97576.72
2022-12-23T02:39:27.995Z,97573.31
2022-12-23T02:42:02.292Z,97574.22
2022-12-23T02:44:40.769Z,97580.97
2022-12-23T02:47:15.153Z,97588.78
2022-12-23T02:49:45.536Z,97580.28
2022-12-23T02:52:14.615Z,97581.91
2022-12-23T02:54:46.906Z,97591.53
2022-12-23T02:57:16.522Z,97589.91
2022-12-23T02:59:48.262Z,97591.38
2022-12-23T03:02:15.167Z,97590.00
2022-12-23T03:04:42.302Z,97590.50
2022-12-23T03:07:18.732Z,97595.94
2022-12-23T03:10:03.227Z,97597.78
2022-12-23T03:12:40.741Z,97594.16
2022-12-23T03:15:30.270Z,97601.47
2022-12-23T03:18:07.795Z,97601.91
2022-12-23T03:21:17.413Z,97612.44
2022-12-23T03:23:55.497Z,97609.59
2022-12-23T03:26:47.826Z,97606.13
2022-12-23T03:29:29.233Z,97605.94
2022-12-23T03:31:59.882Z,97609.75
2022-12-23T03:34:30.821Z,97611.19
2022-12-23T03:37:01.008Z,97615.25
2022-12-23T03:40:02.941Z,97602.44
2022-12-23T03:42:35.095Z,97605.50
2022-12-23T03:45:37.524Z,97608.28
2022-12-23T03:48:02.638Z,97623.09
2022-12-23T03:50:30.369Z,97625.47
2022-12-23T03:53:09.464Z,97630.38
2022-12-23T03:55:42.152Z,97622.03
2022-12-23T03:58:30.877Z,97633.44
2022-12-23T04:01:12.377Z,97622.69
2022-12-23T04:04:07.458Z,97624.03
2022-12-23T04:06:51.798Z,97617.56
2022-12-23T04:09:22.440Z,97618.44
2022-12-23T04:11:49.559Z,97633.03
2022-12-23T04:14:20.803Z,97639.53
2022-12-23T04:16:49.669Z,97638.72
2022-12-23T04:19:16.292Z,97642.56
2022-12-23T04:21:42.761Z,97644.41
2022-12-23T04:24:09.324Z,97651.69
2022-12-23T04:26:35.797Z,97646.06
2022-12-23T04:29:02.242Z,97654.53
2022-12-23T04:31:28.751Z,97648.69
2022-12-23T04:33:55.480Z,97653.22
2022-12-23T04:36:21.955Z,97651.66
2022-12-23T04:38:48.492Z,97653.28
2022-12-23T04:41:15.088Z,97659.34
2022-12-23T04:43:41.573Z,97657.91
2022-12-23T04:46:08.018Z,97657.88
2022-12-23T04:48:35.591Z,97652.88
2022-12-23T04:51:03.138Z,97644.59
2022-12-23T04:53:29.588Z,97642.66
2022-12-23T04:55:56.056Z,97643.13
2022-12-23T04:58:24.113Z,97642.97
2022-12-23T05:01:01.228Z,97631.63
2022-12-23T05:03:27.838Z,97619.88
2022-12-23T05:05:54.345Z,97624.47
2022-12-23T05:08:20.827Z,97634.81
2022-12-23T05:10:47.589Z,97638.25
2022-12-23T05:13:14.213Z,97649.06
2022-12-23T05:15:43.942Z,97645.78
2022-12-23T05:18:10.575Z,97653.66
2022-12-23T05:20:37.271Z,97648.41
2022-12-23T05:23:03.811Z,97651.44
2022-12-23T05:25:30.332Z,97649.38
2022-12-23T05:27:56.772Z,97658.97
2022-12-23T05:30:23.245Z,97661.03
2022-12-23T05:32:53.666Z,97658.59
2022-12-23T05:35:20.757Z,97652.94
2022-12-23T05:37:47.280Z,97650.47
2022-12-23T05:40:18.458Z,97654.53
2022-12-23T05:42:48.165Z,97656.09
2022-12-23T05:45:14.736Z,97653.09
2022-12-23T05:47:41.232Z,97656.53
2022-12-23T05:50:08.181Z,97660.78
2022-12-23T05:52:34.756Z,97654.06
2022-12-23T05:55:01.222Z,97662.19
2022-12-23T05:57:27.768Z,97661.75
2022-12-23T05:59:54.361Z,97671.06
2022-12-23T06:02:22.197Z,97657.09
2022-12-23T06:04:49.706Z,97657.50
2022-12-23T06:07:16.547Z,97663.81
2022-12-23T06:09:43.006Z,97662.56
2022-12-23T06:12:09.443Z,97672.34
2022-12-23T06:14:35.920Z,97675.38
2022-12-23T06:17:02.466Z,97667.81
2022-12-23T06:19:28.979Z,97673.09
2022-12-23T06:21:55.454Z,97671.50
2022-12-23T06:24:22.135Z,97673.72
2022-12-23T06:26:53.358Z,97672.69
2022-12-23T06:29:23.125Z,97679.63
2022-12-23T06:31:49.599Z,97681.88
2022-12-23T06:34:16.303Z,97681.28
2022-12-23T06:36:42.842Z,97684.41
2022-12-23T06:39:10.596Z,97689.25
2022-12-23T06:41:37.181Z,97683.22
2022-12-23T06:44:03.742Z,97685.63
2022-12-23T06:46:30.224Z,97689.69
2022-12-23T06:48:56.709Z,97691.53
2022-12-23T06:51:23.235Z,97692.72
2022-12-23T06:53:49.726Z,97695.75
2022-12-23T06:56:16.188Z,97696.16
2022-12-23T06:58:42.651Z,97692.31
2022-12-23T07:01:10.250Z,97690.09
2022-12-23T07:03:36.944Z,97681.16
2022-12-23T07:06:03.873Z,97687.88
2022-12-23T07:08:30.338Z,97677.50
2022-12-23T07:11:00.894Z,97674.88
2022-12-23T07:13:27.486Z,97677.72
2022-12-23T07:15:54.039Z,97672.06
2022-12-23T07:18:22.721Z,97676.31
2022-12-23T07:20:50.008Z,97672.91
2022-12-23T07:23:16.499Z,97670.88
2022-12-23T07:25:43.026Z,97676.72
2022-12-23T07:28:09.527Z,97688.47
2022-12-23T07:30:36.232Z,97695.38
2022-12-23T07:33:02.706Z,97708.94
2022-12-23T07:35:29.435Z,97714.22
2022-12-23T07:37:56.234Z,97715.63
2022-12-23T07:40:23.938Z,97709.91
2022-12-23T07:42:54.438Z,97712.56
2022-12-23T07:45:20.988Z,97716.63
2022-12-23T07:47:47.620Z,97708.72
2022-12-23T07:50:14.131Z,97708.84
2022-12-23T07:52:40.583Z,97704.72
2022-12-23T07:55:07.421Z,97708.56
2022-12-23T07:57:37.908Z,97704.53
2022-12-23T08:00:11.358Z,97687.72
2022-12-23T08:02:41.733Z,97699.84
2022-12-23T08:05:09.548Z,97698.63
2022-12-23T08:07:36.505Z,97693.34
2022-12-23T08:10:04.085Z,97676.94
2022-12-23T08:12:30.519Z,97677.94
2022-12-23T08:14:57.017Z,97679.78
2022-12-23T08:17:27.266Z,97687.25
2022-12-23T08:19:53.735Z,97686.81
2022-12-23T08:22:20.265Z,97691.69
2022-12-23T08:24:46.820Z,97687.00
2022-12-23T08:27:13.596Z,97677.88
2022-12-23T08:29:40.547Z,97676.03
2022-12-23T08:32:07.557Z,97679.56
2022-12-23T08:34:34.587Z,97678.00
2022-12-23T08:37:01.281Z,97680.75
2022-12-23T08:39:27.815Z,97683.94
2022-12-23T08:41:55.789Z,97695.13
2022-12-23T08:44:22.292Z,97696.69
2022-12-23T08:46:48.898Z,97700.69
2022-12-23T08:49:15.435Z,97699.34
2022-12-23T08:51:42.493Z,97702.31
2022-12-23T08:54:10.231Z,97699.28
2022-12-23T08:56:41.322Z,97691.91
2022-12-23T08:59:18.319Z,97683.03
2022-12-23T09:01:46.036Z,97687.53
2022-12-23T09:04:12.539Z,97693.91
2022-12-23T09:06:41.313Z,97702.13
2022-12-23T09:09:09.143Z,97698.78
2022-12-23T09:11:35.961Z,97691.91
2022-12-23T09:14:03.485Z,97688.47
2022-12-23T09:16:31.687Z,97694.50
2022-12-23T09:18:58.316Z,97695.72
2022-12-23T09:21:25.108Z,97690.88
2022-12-23T09:23:52.069Z,97687.78
2022-12-23T09:26:22.394Z,97697.44
2022-12-23T09:28:48.901Z,97703.13
2022-12-23T09:31:15.483Z,97704.81
2022-12-23T09:33:42.105Z,97697.69
2022-12-23T09:36:08.789Z,97685.59
2022-12-23T09:38:36.043Z,97690.09
2022-12-23T09:41:40.144Z,97693.34
2022-12-23T09:44:24.933Z,97678.97
2022-12-23T09:46:56.522Z,97676.91
2022-12-23T09:49:24.072Z,97669.84
2022-12-23T09:51:55.555Z,97665.84
2022-12-23T09:54:28.894Z,97663.53
2022-12-23T09:57:03.613Z,97654.28
2022-12-23T09:59:57.503Z,97655.38
2022-12-23T10:02:30.168Z,97647.31
2022-12-23T10:05:05.908Z,97646.91
2022-12-23T10:07:51.286Z,97649.81
2022-12-23T10:10:27.394Z,97641.81
2022-12-23T10:12:55.953Z,97657.97
2022-12-23T10:15:39.137Z,97654.28
2022-12-23T10:18:15.963Z,97643.72
2022-12-23T10:20:53.041Z,97645.50
2022-12-23T10:23:36.516Z,97639.44
2022-12-23T10:26:16.625Z,97634.50
2022-12-23T10:28:43.078Z,97634.63
2022-12-23T10:31:39.877Z,97628.81
2022-12-23T10:34:15.239Z,97621.31
2022-12-23T10:37:07.325Z,97621.06
2022-12-23T10:40:04.368Z,97624.50
2022-12-23T10:42:55.571Z,97614.78
2022-12-23T10:45:47.009Z,97613.78
2022-12-23T10:48:32.912Z,97602.91
2022-12-23T10:51:45.287Z,97588.13
2022-12-23T10:54:18.786Z,97591.13
2022-12-23T10:56:45.322Z,97584.59
2022-12-23T10:59:15.471Z,97572.97
2022-12-23T11:01:47.617Z,97569.34
2022-12-23T11:04:24.827Z,97569.50
2022-12-23T11:07:18.233Z,97544.13
2022-12-23T11:10:00.445Z,97542.84
2022-12-23T11:12:43.073Z,97535.97
2022-12-23T11:15:36.077Z,97535.97
2022-12-23T11:18:12.234Z,97528.22
2022-12-23T11:20:41.855Z,97509.78
2022-12-23T11:23:25.915Z,97510.16
2022-12-23T11:26:11.228Z,97509.91
2022-12-23T11:28:47.507Z,97497.38
2022-12-23T11:31:16.156Z,97492.69
2022-12-23T11:34:05.795Z,97489.81
2022-12-23T11:36:32.981Z,97486.00
2022-12-23T11:39:12.349Z,97489.38
2022-12-23T11:41:43.401Z,97490.13
2022-12-23T11:44:28.273Z,97478.22
2022-12-23T11:46:55.475Z,97475.34
2022-12-23T11:49:32.710Z,97470.47
2022-12-23T11:52:05.231Z,97464.28
2022-12-23T11:54:33.529Z,97461.34
2022-12-23T11:57:02.752Z,97450.22
2022-12-23T11:59:33.676Z,97446.84
2022-12-23T12:02:03.586Z,97441.69
2022-12-23T12:04:34.571Z,97434.19
2022-12-23T12:07:03.435Z,97429.75
2022-12-23T12:09:32.140Z,97429.28
2022-12-23T12:12:06.180Z,97422.41
2022-12-23T12:14:45.197Z,97417.34
2022-12-23T12:17:32.118Z,97412.44
2022-12-23T12:20:11.015Z,97403.91
2022-12-23T12:22:52.550Z,97394.47
2022-12-23T12:25:22.335Z,97386.09
2022-12-23T12:27:58.343Z,97379.22
2022-12-23T12:30:39.930Z,97377.06
2022-12-23T12:33:23.115Z,97372.59
2022-12-23T12:36:04.915Z,97364.59
2022-12-23T12:38:33.290Z,97361.72
2022-12-23T12:41:07.602Z,97361.16
2022-12-23T12:43:42.174Z,97352.75
2022-12-23T12:46:33.564Z,97357.97
2022-12-23T12:49:10.713Z,97359.88
2022-12-23T12:51:45.747Z,97347.03
2022-12-23T12:54:25.322Z,97341.84
2022-12-23T12:56:54.960Z,97344.97
2022-12-23T12:59:26.168Z,97341.75
2022-12-23T13:02:26.790Z,97340.19
2022-12-23T13:05:13.184Z,97337.88
2022-12-23T13:07:51.527Z,97329.59
2022-12-23T13:10:49.656Z,97326.97
2022-12-23T13:13:41.643Z,97324.13
2022-12-23T13:16:40.511Z,97324.69
2022-12-23T13:19:27.992Z,97312.50
2022-12-23T13:22:06.723Z,97308.13
2022-12-23T13:24:58.574Z,97304.25
2022-12-23T13:27:36.954Z,97295.16
2022-12-23T13:30:14.705Z,97300.91
2022-12-23T13:32:47.192Z,97302.84
2022-12-23T13:35:51.546Z,97300.78
2022-12-23T13:38:20.894Z,97309.06
2022-12-23T13:41:05.714Z,97296.16
2022-12-23T13:43:53.458Z,97298.94
2022-12-23T13:46:45.155Z,97294.56
2022-12-23T13:49:50.672Z,97303.28
2022-12-23T13:52:32.272Z,97283.19
2022-12-23T13:55:21.455Z,97284.06
2022-12-23T13:58:15.245Z,97288.19
2022-12-23T14:00:42.266Z,97284.19
2022-12-23T14:03:14.466Z,97274.88
2022-12-23T14:05:46.007Z,97276.56
2022-12-23T14:08:18.449Z,97278.75
2022-12-23T14:10:59.911Z,97277.63
2022-12-23T14:13:31.019Z,97278.91
2022-12-23T14:16:09.504Z,97276.56
2022-12-23T14:18:53.416Z,97284.06
2022-12-23T14:21:42.534Z,97287.75
2022-12-23T14:24:35.374Z,97292.34
2022-12-23T14:27:39.671Z,97293.94
2022-12-23T14:30:15.348Z,97285.28
2022-12-23T14:32:53.201Z,97290.56
2022-12-23T14:35:26.524Z,97288.97
2022-12-23T14:38:08.561Z,97277.13
2022-12-23T14:40:37.793Z,97284.13
2022-12-23T14:43:22.451Z,97284.13
2022-12-23T14:45:51.068Z,97266.09
2022-12-23T14:48:36.082Z,97280.13
2022-12-23T14:51:36.316Z,97275.53
2022-12-23T14:54:02.739Z,97265.25
2022-12-23T14:56:51.760Z,97266.78
2022-12-23T14:59:24.016Z,97275.28
2022-12-23T15:01:54.013Z,97278.50
2022-12-23T15:04:25.643Z,97277.34
2022-12-23T15:06:56.756Z,97270.78
2022-12-23T15:09:30.078Z,97274.50
2022-12-23T15:12:00.701Z,97281.25
2022-12-23T15:14:34.929Z,97284.13
2022-12-23T15:17:15.999Z,97280.13
2022-12-23T15:19:47.603Z,97277.69
2022-12-23T15:22:22.643Z,97279.53
2022-12-23T15:24:52.179Z,97283.69
2022-12-23T15:27:29.361Z,97288.44
2022-12-23T15:29:56.717Z,97289.78
2022-12-23T15:32:25.132Z,97287.25
2022-12-23T15:34:54.469Z,97302.22
2022-12-23T15:37:29.555Z,97300.03
2022-12-23T15:40:06.144Z,97308.53
2022-12-23T15:42:38.457Z,97295.69
2022-12-23T15:45:30.444Z,97306.81
2022-12-23T15:47:56.971Z,97301.16
2022-12-23T15:50:23.607Z,97307.84
2022-12-23T15:52:51.145Z,97320.38
2022-12-23T15:55:44.651Z,97326.97
2022-12-23T15:58:32.990Z,97315.44
2022-12-23T16:01:01.067Z,97323.63
2022-12-23T16:03:34.480Z,97320.53
2022-12-23T16:06:18.936Z,97315.25
2022-12-23T16:08:55.232Z,97323.72
2022-12-23T16:11:22.844Z,97323.19
2022-12-23T16:14:21.320Z,97329.25
2022-12-23T16:16:48.402Z,97331.44
2022-12-23T16:19:47.461Z,97329.13
2022-12-23T16:22:20.592Z,97332.59
2022-12-23T16:24:50.339Z,97331.44
2022-12-23T16:27:19.457Z,97336.84
2022-12-23T16:29:48.460Z,97341.53
2022-12-23T16:32:19.395Z,97339.03
2022-12-23T16:34:49.912Z,97340.63
2022-12-23T16:37:16.589Z,97341.09
2022-12-23T16:39:43.127Z,97357.22
2022-12-23T16:42:09.637Z,97352.47
2022-12-23T16:44:36.324Z,97357.56
2022-12-23T16:47:08.249Z,97356.50
2022-12-23T16:49:37.140Z,97368.13
2022-12-23T16:52:06.843Z,97368.69
2022-12-23T16:54:33.288Z,97361.34
2022-12-23T16:56:59.839Z,97360.75
2022-12-23T16:59:26.474Z,97365.69
2022-12-23T17:01:55.553Z,97372.94
2022-12-23T17:04:26.031Z,97384.81
2022-12-23T17:06:52.515Z,97385.16
2022-12-23T17:09:19.108Z,97381.56
2022-12-23T17:11:49.035Z,97370.78
2022-12-23T17:14:21.483Z,97379.97
2022-12-23T17:16:48.984Z,97387.47
2022-12-23T17:19:15.687Z,97373.09
2022-12-23T17:21:44.446Z,97384.00
2022-12-23T17:24:12.774Z,97388.38
2022-12-23T17:26:39.406Z,97389.06
2022-12-23T17:29:06.186Z,97396.41
2022-12-23T17:31:34.137Z,97401.03
2022-12-23T17:34:01.534Z,97400.69
2022-12-23T17:36:28.085Z,97393.31
2022-12-23T17:38:54.733Z,97415.16
2022-12-23T17:41:29.698Z,97433.34
2022-12-23T17:43:57.055Z,97430.91
2022-12-23T17:46:23.910Z,97442.97
2022-12-23T17:48:50.961Z,97451.34
2022-12-23T17:51:20.356Z,97466.97
2022-12-23T17:53:51.563Z,97453.59
2022-12-23T17:56:22.200Z,97464.25
2022-12-23T17:58:49.934Z,97471.25
2022-12-23T18:01:21.698Z,97469.03
2022-12-23T18:03:48.303Z,97462.22
2022-12-23T18:06:16.897Z,97469.34
2022-12-23T18:08:43.693Z,97466.72
2022-12-23T18:11:19.977Z,97470.16
2022-12-23T18:13:47.518Z,97475.44
2022-12-23T18:16:14.037Z,97477.28
2022-12-23T18:18:46.138Z,97474.41
2022-12-23T18:21:25.632Z,97481.75
2022-12-23T18:23:54.792Z,97481.16
2022-12-23T18:26:21.363Z,97491.66
2022-12-23T18:28:47.940Z,97498.41
2022-12-23T18:31:20.634Z,97504.69
2022-12-23T18:33:47.466Z,97511.53
2022-12-23T18:36:27.511Z,97508.81
2022-12-23T18:38:54.745Z,97509.47
2022-12-23T18:41:22.097Z,97507.06
2022-12-23T18:43:48.755Z,97506.03
2022-12-23T18:46:15.394Z,97508.31
2022-12-23T18:48:41.920Z,97515.13
2022-12-23T18:51:14.547Z,97511.97
2022-12-23T18:53:41.621Z,97503.81
2022-12-23T18:56:12.780Z,97513.59
2022-12-23T18:58:39.325Z,97519.66
2022-12-23T19:01:05.986Z,97523.94
2022-12-23T19:03:32.669Z,97519.75
2022-12-23T19:06:06.406Z,97531.88
2022-12-23T19:08:34.923Z,97538.94
2022-12-23T19:11:01.865Z,97557.44
2022-12-23T19:13:28.652Z,97561.91
2022-12-23T19:15:55.196Z,97553.78
2022-12-23T19:18:21.994Z,97565.97
2022-12-23T19:20:49.602Z,97563.88
2022-12-23T19:23:16.541Z,97569.63
2022-12-23T19:25:49.216Z,97562.72
2022-12-23T19:28:20.916Z,97562.19
2022-12-23T19:30:47.479Z,97565.22
2022-12-23T19:33:13.954Z,97566.91
2022-12-23T19:35:44.438Z,97575.53
2022-12-23T19:38:12.121Z,97575.97
2022-12-23T19:40:38.700Z,97576.75
2022-12-23T19:43:05.201Z,97573.53
2022-12-23T19:45:31.891Z,97575.09
2022-12-23T19:47:58.427Z,97583.03
2022-12-23T19:50:26.556Z,97587.88
2022-12-23T19:52:54.680Z,97590.94
2022-12-23T19:55:21.291Z,97572.13
2022-12-23T19:57:47.814Z,97576.56
2022-12-23T20:00:15.922Z,97586.09
2022-12-23T20:02:42.687Z,97608.25
2022-12-23T20:05:10.463Z,97628.88
2022-12-23T20:07:37.306Z,97624.66
2022-12-23T20:10:05.736Z,97634.59
2022-12-23T20:12:32.408Z,97651.03
2022-12-23T20:14:59.376Z,97658.34
2022-12-23T20:17:25.826Z,97671.19
2022-12-23T20:19:52.312Z,97673.22
2022-12-23T20:22:18.891Z,97656.84
2022-12-23T20:24:45.571Z,97651.16
2022-12-23T20:27:14.803Z,97658.44
2022-12-23T20:29:42.330Z,97666.38
2022-12-23T20:32:08.962Z,97673.31
2022-12-23T20:34:39.639Z,97668.84
2022-12-23T20:37:07.685Z,97664.38
2022-12-23T20:39:34.687Z,97681.00
2022-12-23T20:42:01.200Z,97692.50
2022-12-23T20:44:36.994Z,97704.63
2022-12-23T20:47:06.019Z,97701.19
2022-12-23T20:49:33.120Z,97705.69
2022-12-23T20:51:59.694Z,97705.69
2022-12-23T20:54:32.152Z,97715.41
2022-12-23T20:57:00.600Z,97731.00
2022-12-23T20:59:27.023Z,97731.81
2022-12-23T21:01:53.594Z,97734.69
2022-12-23T21:04:20.448Z,97733.25
2022-12-23T21:06:46.929Z,97732.66
2022-12-23T21:09:15.093Z,97734.91
2022-12-23T21:11:44.004Z,97742.22
2022-12-23T21:14:11.303Z,97735.53
2022-12-23T21:16:38.694Z,97749.50
2022-12-23T21:19:06.609Z,97751.13
2022-12-23T21:21:33.198Z,97758.47
2022-12-23T21:24:01.665Z,97751.75
2022-12-23T21:26:30.029Z,97753.81
2022-12-23T21:28:59.376Z,97740.41
2022-12-23T21:31:27.303Z,97756.44
2022-12-23T21:33:54.341Z,97757.84
2022-12-23T21:36:24.216Z,97755.44
2022-12-23T21:38:51.329Z,97758.28
2022-12-23T21:41:29.184Z,97759.66
2022-12-23T21:43:56.874Z,97758.25
2022-12-23T21:46:25.136Z,97762.75
2022-12-23T21:48:51.648Z,97766.56
2022-12-23T21:51:20.753Z,97764.31
2022-12-23T21:53:50.768Z,97782.78
2022-12-23T21:56:19.722Z,97783.16
2022-12-23T21:58:47.218Z,97787.41
2022-12-23T22:01:16.041Z,97788.03
2022-12-23T22:03:43.741Z,97793.94
2022-12-23T22:06:16.224Z,97792.91
2022-12-23T22:08:43.169Z,97787.25
2022-12-23T22:11:17.809Z,97797.78
2022-12-23T22:13:45.171Z,97794.34
2022-12-23T22:16:15.360Z,97808.31
2022-12-23T22:18:42.556Z,97823.78
2022-12-23T22:21:12.339Z,97827.03
2022-12-23T22:23:39.472Z,97830.06
2022-12-23T22:26:07.367Z,97835.94
2022-12-23T22:28:35.581Z,97834.09
2022-12-23T22:31:04.440Z,97841.00
2022-12-23T22:33:31.899Z,97839.78
2022-12-23T22:35:58.514Z,97834.09
2022-12-23T22:38:24.999Z,97839.19
2022-12-23T22:40:52.664Z,97841.84
2022-12-23T22:43:19.495Z,97840.00
2022-12-23T22:45:46.325Z,97848.50
2022-12-23T22:48:13.155Z,97860.06
2022-12-23T22:50:39.803Z,97844.06
2022-12-23T22:53:06.253Z,97843.03
2022-12-23T22:55:32.721Z,97844.25
2022-12-23T22:57:59.218Z,97847.91
2022-12-23T23:00:25.754Z,97853.97
2022-12-23T23:02:52.240Z,97854.41
2022-12-23T23:05:18.728Z,97869.81
2022-12-23T23:07:45.207Z,97870.41
2022-12-23T23:10:11.701Z,97870.41
2022-12-23T23:12:38.658Z,97868.38
2022-12-23T23:15:05.512Z,97857.22
2022-12-23T23:17:31.953Z,97861.69
2022-12-23T23:19:58.396Z,97870.22
2022-12-23T23:22:25.334Z,97868.56
2022-12-23T23:24:52.391Z,97876.47
2022-12-23T23:27:18.863Z,97880.13
2022-12-23T23:29:45.327Z,97886.81
2022-12-23T23:32:11.906Z,97896.16
2022-12-23T23:34:38.584Z,97899.38
2022-12-23T23:37:05.256Z,97887.63
2022-12-23T23:39:31.865Z,97896.75
2022-12-23T23:41:58.809Z,97911.75
2022-12-23T23:44:25.334Z,97905.25
2022-12-23T23:46:51.843Z,97919.66
2022-12-23T23:49:18.345Z,97909.31
2022-12-23T23:51:44.891Z,97908.91
2022-12-23T23:54:11.409Z,97915.19
2022-12-23T23:56:39.475Z,97913.38
2022-12-23T23:59:07.420Z,97917.03
